sensor_id;sensor_type;location;lat;lon;timestamp;P1;durP1;ratioP1;P2;durP2;ratioP2
11763;SDS011;5939;56.522;14.950;2023-06-22T00:00:46;4.27;;;3.43;;
11763;SDS011;5939;56.522;14.950;2023-06-22T00:03:12;3.80;;;3.13;;
11763;SDS011;5939;56.522;14.950;2023-06-22T00:05:37;3.17;;;2.73;;
11763;SDS011;5939;56.522;14.950;2023-06-22T00:08:03;4.67;;;2.90;;
11763;SDS011;5939;56.522;14.950;2023-06-22T00:10:30;3.30;;;2.90;;
11763;SDS011;5939;56.522;14.950;2023-06-22T00:12:55;5.07;;;2.77;;
11763;SDS011;5939;56.522;14.950;2023-06-22T00:15:21;3.40;;;3.10;;
11763;SDS011;5939;56.522;14.950;2023-06-22T00:17:47;2.80;;;2.40;;
11763;SDS011;5939;56.522;14.950;2023-06-22T00:20:12;3.20;;;2.37;;
11763;SDS011;5939;56.522;14.950;2023-06-22T00:22:39;2.97;;;2.60;;
11763;SDS011;5939;56.522;14.950;2023-06-22T00:25:06;2.90;;;2.57;;
11763;SDS011;5939;56.522;14.950;2023-06-22T00:27:32;3.50;;;2.63;;
11763;SDS011;5939;56.522;14.950;2023-06-22T00:29:57;4.03;;;3.03;;
11763;SDS011;5939;56.522;14.950;2023-06-22T00:32:23;3.20;;;2.30;;
11763;SDS011;5939;56.522;14.950;2023-06-22T00:34:49;3.07;;;2.30;;
11763;SDS011;5939;56.522;14.950;2023-06-22T00:37:15;3.20;;;2.50;;
11763;SDS011;5939;56.522;14.950;2023-06-22T00:39:41;2.93;;;2.30;;
11763;SDS011;5939;56.522;14.950;2023-06-22T00:42:10;3.73;;;2.50;;
11763;SDS011;5939;56.522;14.950;2023-06-22T00:44:36;3.73;;;2.10;;
11763;SDS011;5939;56.522;14.950;2023-06-22T00:47:02;3.20;;;2.13;;
11763;SDS011;5939;56.522;14.950;2023-06-22T00:49:28;3.17;;;2.30;;
11763;SDS011;5939;56.522;14.950;2023-06-22T00:51:54;3.90;;;2.53;;
11763;SDS011;5939;56.522;14.950;2023-06-22T00:54:22;2.83;;;1.93;;
11763;SDS011;5939;56.522;14.950;2023-06-22T00:56:58;2.53;;;2.10;;
11763;SDS011;5939;56.522;14.950;2023-06-22T00:59:24;2.90;;;2.43;;
11763;SDS011;5939;56.522;14.950;2023-06-22T01:01:52;3.57;;;2.53;;
11763;SDS011;5939;56.522;14.950;2023-06-22T01:04:17;4.23;;;2.70;;
11763;SDS011;5939;56.522;14.950;2023-06-22T01:06:52;2.60;;;2.40;;
11763;SDS011;5939;56.522;14.950;2023-06-22T01:09:28;3.80;;;2.40;;
11763;SDS011;5939;56.522;14.950;2023-06-22T01:12:00;2.47;;;2.20;;
11763;SDS011;5939;56.522;14.950;2023-06-22T01:14:37;3.77;;;2.10;;
11763;SDS011;5939;56.522;14.950;2023-06-22T01:17:25;2.97;;;2.37;;
11763;SDS011;5939;56.522;14.950;2023-06-22T01:19:54;2.00;;;1.80;;
11763;SDS011;5939;56.522;14.950;2023-06-22T01:22:20;2.33;;;2.13;;
11763;SDS011;5939;56.522;14.950;2023-06-22T01:25:11;2.67;;;2.40;;
11763;SDS011;5939;56.522;14.950;2023-06-22T01:27:47;4.10;;;2.70;;
11763;SDS011;5939;56.522;14.950;2023-06-22T01:30:39;3.57;;;2.23;;
11763;SDS011;5939;56.522;14.950;2023-06-22T01:33:08;2.77;;;2.30;;
11763;SDS011;5939;56.522;14.950;2023-06-22T01:35:37;2.57;;;2.37;;
11763;SDS011;5939;56.522;14.950;2023-06-22T01:38:03;2.83;;;2.20;;
11763;SDS011;5939;56.522;14.950;2023-06-22T01:40:30;4.23;;;2.27;;
11763;SDS011;5939;56.522;14.950;2023-06-22T01:42:59;3.50;;;2.30;;
11763;SDS011;5939;56.522;14.950;2023-06-22T01:45:26;4.07;;;2.30;;
11763;SDS011;5939;56.522;14.950;2023-06-22T01:47:52;2.63;;;2.20;;
11763;SDS011;5939;56.522;14.950;2023-06-22T01:50:19;2.40;;;2.20;;
11763;SDS011;5939;56.522;14.950;2023-06-22T01:52:45;2.17;;;1.97;;
11763;SDS011;5939;56.522;14.950;2023-06-22T01:55:11;2.47;;;2.27;;
11763;SDS011;5939;56.522;14.950;2023-06-22T01:57:37;3.50;;;2.43;;
11763;SDS011;5939;56.522;14.950;2023-06-22T02:05:19;2.27;;;2.07;;
11763;SDS011;5939;56.522;14.950;2023-06-22T02:07:56;2.47;;;2.27;;
11763;SDS011;5939;56.522;14.950;2023-06-22T02:10:35;2.50;;;2.10;;
11763;SDS011;5939;56.522;14.950;2023-06-22T02:13:03;4.67;;;2.30;;
11763;SDS011;5939;56.522;14.950;2023-06-22T02:15:31;2.87;;;2.60;;
11763;SDS011;5939;56.522;14.950;2023-06-22T02:17:57;3.07;;;2.40;;
11763;SDS011;5939;56.522;14.950;2023-06-22T02:20:24;3.23;;;2.10;;
11763;SDS011;5939;56.522;14.950;2023-06-22T02:22:50;4.27;;;2.57;;
11763;SDS011;5939;56.522;14.950;2023-06-22T02:25:15;2.80;;;2.33;;
11763;SDS011;5939;56.522;14.950;2023-06-22T02:27:41;2.83;;;2.20;;
11763;SDS011;5939;56.522;14.950;2023-06-22T02:30:07;2.60;;;2.10;;
11763;SDS011;5939;56.522;14.950;2023-06-22T02:32:37;3.33;;;2.63;;
11763;SDS011;5939;56.522;14.950;2023-06-22T02:35:02;3.43;;;2.60;;
11763;SDS011;5939;56.522;14.950;2023-06-22T02:37:30;3.03;;;2.40;;
11763;SDS011;5939;56.522;14.950;2023-06-22T02:39:56;2.73;;;2.33;;
11763;SDS011;5939;56.522;14.950;2023-06-22T02:42:22;2.97;;;2.73;;
11763;SDS011;5939;56.522;14.950;2023-06-22T02:44:48;4.00;;;2.20;;
11763;SDS011;5939;56.522;14.950;2023-06-22T02:47:13;2.40;;;2.20;;
11763;SDS011;5939;56.522;14.950;2023-06-22T02:49:39;3.87;;;2.60;;
11763;SDS011;5939;56.522;14.950;2023-06-22T02:52:05;2.23;;;2.03;;
11763;SDS011;5939;56.522;14.950;2023-06-22T02:54:31;2.83;;;2.13;;
11763;SDS011;5939;56.522;14.950;2023-06-22T02:56:58;3.43;;;2.50;;
11763;SDS011;5939;56.522;14.950;2023-06-22T02:59:23;4.07;;;2.50;;
11763;SDS011;5939;56.522;14.950;2023-06-22T03:01:49;3.33;;;2.30;;
11763;SDS011;5939;56.522;14.950;2023-06-22T03:04:15;3.47;;;2.50;;
11763;SDS011;5939;56.522;14.950;2023-06-22T03:06:41;2.50;;;2.30;;
11763;SDS011;5939;56.522;14.950;2023-06-22T03:09:06;3.10;;;2.47;;
11763;SDS011;5939;56.522;14.950;2023-06-22T03:11:36;2.70;;;2.43;;
11763;SDS011;5939;56.522;14.950;2023-06-22T03:14:01;2.10;;;2.00;;
11763;SDS011;5939;56.522;14.950;2023-06-22T03:16:27;4.33;;;2.20;;
11763;SDS011;5939;56.522;14.950;2023-06-22T03:18:53;2.97;;;2.10;;
11763;SDS011;5939;56.522;14.950;2023-06-22T03:21:19;3.17;;;2.40;;
11763;SDS011;5939;56.522;14.950;2023-06-22T03:23:47;2.30;;;2.10;;
11763;SDS011;5939;56.522;14.950;2023-06-22T03:26:12;3.00;;;2.23;;
11763;SDS011;5939;56.522;14.950;2023-06-22T03:28:41;3.23;;;2.10;;
11763;SDS011;5939;56.522;14.950;2023-06-22T03:31:07;3.60;;;2.70;;
11763;SDS011;5939;56.522;14.950;2023-06-22T03:33:33;3.73;;;2.60;;
11763;SDS011;5939;56.522;14.950;2023-06-22T03:35:59;3.13;;;2.53;;
11763;SDS011;5939;56.522;14.950;2023-06-22T03:38:24;2.80;;;2.50;;
11763;SDS011;5939;56.522;14.950;2023-06-22T03:40:50;3.13;;;2.83;;
11763;SDS011;5939;56.522;14.950;2023-06-22T03:43:15;2.73;;;2.53;;
11763;SDS011;5939;56.522;14.950;2023-06-22T03:45:41;4.20;;;2.80;;
11763;SDS011;5939;56.522;14.950;2023-06-22T03:48:07;3.50;;;2.67;;
11763;SDS011;5939;56.522;14.950;2023-06-22T03:50:32;2.83;;;2.63;;
11763;SDS011;5939;56.522;14.950;2023-06-22T03:52:58;3.17;;;2.50;;
11763;SDS011;5939;56.522;14.950;2023-06-22T03:55:23;2.97;;;2.67;;
11763;SDS011;5939;56.522;14.950;2023-06-22T03:57:49;2.83;;;2.60;;
11763;SDS011;5939;56.522;14.950;2023-06-22T04:00:15;3.63;;;2.80;;
11763;SDS011;5939;56.522;14.950;2023-06-22T04:02:41;3.23;;;2.80;;
11763;SDS011;5939;56.522;14.950;2023-06-22T04:05:08;5.50;;;2.60;;
11763;SDS011;5939;56.522;14.950;2023-06-22T04:07:34;3.23;;;2.70;;
11763;SDS011;5939;56.522;14.950;2023-06-22T04:10:02;2.60;;;2.37;;
11763;SDS011;5939;56.522;14.950;2023-06-22T04:12:30;3.10;;;2.80;;
11763;SDS011;5939;56.522;14.950;2023-06-22T04:14:56;2.73;;;2.47;;
11763;SDS011;5939;56.522;14.950;2023-06-22T04:17:22;3.30;;;3.00;;
11763;SDS011;5939;56.522;14.950;2023-06-22T04:19:50;3.40;;;3.10;;
11763;SDS011;5939;56.522;14.950;2023-06-22T04:22:16;5.13;;;2.87;;
11763;SDS011;5939;56.522;14.950;2023-06-22T04:24:41;3.20;;;2.80;;
11763;SDS011;5939;56.522;14.950;2023-06-22T04:27:07;3.47;;;2.80;;
11763;SDS011;5939;56.522;14.950;2023-06-22T04:29:32;4.10;;;2.80;;
11763;SDS011;5939;56.522;14.950;2023-06-22T04:31:58;3.30;;;2.90;;
11763;SDS011;5939;56.522;14.950;2023-06-22T04:34:28;3.57;;;2.90;;
11763;SDS011;5939;56.522;14.950;2023-06-22T04:36:54;3.83;;;3.30;;
11763;SDS011;5939;56.522;14.950;2023-06-22T04:39:19;4.33;;;2.87;;
11763;SDS011;5939;56.522;14.950;2023-06-22T04:41:45;3.30;;;3.00;;
11763;SDS011;5939;56.522;14.950;2023-06-22T04:44:12;3.37;;;2.70;;
11763;SDS011;5939;56.522;14.950;2023-06-22T04:46:39;4.03;;;3.13;;
11763;SDS011;5939;56.522;14.950;2023-06-22T04:49:08;3.70;;;3.20;;
11763;SDS011;5939;56.522;14.950;2023-06-22T04:51:38;3.70;;;3.27;;
11763;SDS011;5939;56.522;14.950;2023-06-22T04:54:05;3.87;;;3.13;;
11763;SDS011;5939;56.522;14.950;2023-06-22T04:56:32;5.07;;;3.30;;
11763;SDS011;5939;56.522;14.950;2023-06-22T04:58:58;3.50;;;3.10;;
11763;SDS011;5939;56.522;14.950;2023-06-22T05:01:23;3.57;;;3.27;;
11763;SDS011;5939;56.522;14.950;2023-06-22T05:03:50;6.03;;;3.30;;
11763;SDS011;5939;56.522;14.950;2023-06-22T05:06:20;5.63;;;3.97;;
11763;SDS011;5939;56.522;14.950;2023-06-22T05:08:46;6.87;;;3.77;;
11763;SDS011;5939;56.522;14.950;2023-06-22T05:11:12;4.17;;;3.27;;
11763;SDS011;5939;56.522;14.950;2023-06-22T05:13:38;10.13;;;3.80;;
11763;SDS011;5939;56.522;14.950;2023-06-22T05:16:03;6.50;;;3.73;;
11763;SDS011;5939;56.522;14.950;2023-06-22T05:18:31;4.20;;;3.30;;
11763;SDS011;5939;56.522;14.950;2023-06-22T05:20:57;4.93;;;3.50;;
11763;SDS011;5939;56.522;14.950;2023-06-22T05:23:24;5.13;;;3.77;;
11763;SDS011;5939;56.522;14.950;2023-06-22T05:25:50;5.10;;;3.43;;
11763;SDS011;5939;56.522;14.950;2023-06-22T05:28:16;6.57;;;3.60;;
11763;SDS011;5939;56.522;14.950;2023-06-22T05:30:42;4.00;;;3.60;;
11763;SDS011;5939;56.522;14.950;2023-06-22T05:33:07;7.00;;;3.87;;
11763;SDS011;5939;56.522;14.950;2023-06-22T05:35:33;3.70;;;3.40;;
11763;SDS011;5939;56.522;14.950;2023-06-22T05:37:59;3.83;;;3.43;;
11763;SDS011;5939;56.522;14.950;2023-06-22T05:40:24;4.30;;;3.80;;
11763;SDS011;5939;56.522;14.950;2023-06-22T05:42:50;4.53;;;3.40;;
11763;SDS011;5939;56.522;14.950;2023-06-22T05:45:16;4.83;;;3.80;;
11763;SDS011;5939;56.522;14.950;2023-06-22T05:47:41;5.60;;;3.47;;
11763;SDS011;5939;56.522;14.950;2023-06-22T05:50:07;7.40;;;3.77;;
11763;SDS011;5939;56.522;14.950;2023-06-22T05:52:33;5.47;;;3.30;;
11763;SDS011;5939;56.522;14.950;2023-06-22T05:54:59;3.53;;;3.20;;
11763;SDS011;5939;56.522;14.950;2023-06-22T05:57:27;4.53;;;3.60;;
11763;SDS011;5939;56.522;14.950;2023-06-22T05:59:52;4.00;;;3.10;;
11763;SDS011;5939;56.522;14.950;2023-06-22T06:02:19;4.93;;;3.50;;
11763;SDS011;5939;56.522;14.950;2023-06-22T06:04:44;4.43;;;3.43;;
11763;SDS011;5939;56.522;14.950;2023-06-22T06:07:10;5.73;;;3.90;;
11763;SDS011;5939;56.522;14.950;2023-06-22T06:09:36;5.33;;;3.70;;
11763;SDS011;5939;56.522;14.950;2023-06-22T06:12:01;4.77;;;3.70;;
11763;SDS011;5939;56.522;14.950;2023-06-22T06:14:28;4.13;;;3.63;;
11763;SDS011;5939;56.522;14.950;2023-06-22T06:16:53;4.70;;;3.30;;
11763;SDS011;5939;56.522;14.950;2023-06-22T06:19:19;4.63;;;3.87;;
11763;SDS011;5939;56.522;14.950;2023-06-22T06:21:45;5.13;;;3.50;;
11763;SDS011;5939;56.522;14.950;2023-06-22T06:24:11;3.70;;;3.30;;
11763;SDS011;5939;56.522;14.950;2023-06-22T06:26:37;5.47;;;3.27;;
11763;SDS011;5939;56.522;14.950;2023-06-22T06:29:03;5.77;;;3.40;;
11763;SDS011;5939;56.522;14.950;2023-06-22T06:31:28;6.33;;;3.47;;
11763;SDS011;5939;56.522;14.950;2023-06-22T06:33:54;5.93;;;3.50;;
11763;SDS011;5939;56.522;14.950;2023-06-22T06:36:20;4.57;;;3.77;;
11763;SDS011;5939;56.522;14.950;2023-06-22T06:38:46;4.27;;;3.60;;
11763;SDS011;5939;56.522;14.950;2023-06-22T06:41:15;4.67;;;3.27;;
11763;SDS011;5939;56.522;14.950;2023-06-22T06:43:41;4.43;;;3.40;;
11763;SDS011;5939;56.522;14.950;2023-06-22T06:46:10;4.20;;;3.43;;
11763;SDS011;5939;56.522;14.950;2023-06-22T06:48:36;6.17;;;4.00;;
11763;SDS011;5939;56.522;14.950;2023-06-22T06:51:01;5.00;;;3.50;;
11763;SDS011;5939;56.522;14.950;2023-06-22T06:53:27;4.60;;;3.20;;
11763;SDS011;5939;56.522;14.950;2023-06-22T06:55:53;4.40;;;3.30;;
11763;SDS011;5939;56.522;14.950;2023-06-22T06:58:19;5.23;;;3.40;;
11763;SDS011;5939;56.522;14.950;2023-06-22T07:00:45;4.13;;;3.53;;
11763;SDS011;5939;56.522;14.950;2023-06-22T07:03:10;5.13;;;3.37;;
11763;SDS011;5939;56.522;14.950;2023-06-22T07:05:36;4.37;;;3.63;;
11763;SDS011;5939;56.522;14.950;2023-06-22T07:08:02;3.70;;;3.27;;
11763;SDS011;5939;56.522;14.950;2023-06-22T07:10:28;5.00;;;3.60;;
11763;SDS011;5939;56.522;14.950;2023-06-22T07:12:54;4.33;;;3.50;;
11763;SDS011;5939;56.522;14.950;2023-06-22T07:15:20;4.17;;;3.27;;
11763;SDS011;5939;56.522;14.950;2023-06-22T07:17:45;5.57;;;3.50;;
11763;SDS011;5939;56.522;14.950;2023-06-22T07:20:11;4.80;;;3.20;;
11763;SDS011;5939;56.522;14.950;2023-06-22T07:22:37;3.90;;;2.90;;
11763;SDS011;5939;56.522;14.950;2023-06-22T07:25:08;3.60;;;3.30;;
11763;SDS011;5939;56.522;14.950;2023-06-22T07:27:42;3.30;;;2.77;;
11763;SDS011;5939;56.522;14.950;2023-06-22T07:30:10;4.40;;;3.23;;
11763;SDS011;5939;56.522;14.950;2023-06-22T07:32:36;4.10;;;3.63;;
11763;SDS011;5939;56.522;14.950;2023-06-22T07:35:02;4.00;;;3.30;;
11763;SDS011;5939;56.522;14.950;2023-06-22T07:37:29;6.00;;;3.17;;
11763;SDS011;5939;56.522;14.950;2023-06-22T07:39:57;4.20;;;3.37;;
11763;SDS011;5939;56.522;14.950;2023-06-22T07:42:26;5.50;;;3.27;;
11763;SDS011;5939;56.522;14.950;2023-06-22T07:44:53;4.40;;;3.40;;
11763;SDS011;5939;56.522;14.950;2023-06-22T07:47:20;6.67;;;3.67;;
11763;SDS011;5939;56.522;14.950;2023-06-22T07:49:50;3.83;;;3.03;;
11763;SDS011;5939;56.522;14.950;2023-06-22T07:52:15;4.67;;;3.10;;
11763;SDS011;5939;56.522;14.950;2023-06-22T07:54:41;5.30;;;3.40;;
11763;SDS011;5939;56.522;14.950;2023-06-22T07:57:06;3.53;;;3.00;;
11763;SDS011;5939;56.522;14.950;2023-06-22T07:59:32;5.93;;;3.13;;
11763;SDS011;5939;56.522;14.950;2023-06-22T08:01:58;3.60;;;3.00;;
11763;SDS011;5939;56.522;14.950;2023-06-22T08:04:23;3.30;;;3.00;;
11763;SDS011;5939;56.522;14.950;2023-06-22T08:06:49;4.93;;;3.10;;
11763;SDS011;5939;56.522;14.950;2023-06-22T08:09:14;4.50;;;3.20;;
11763;SDS011;5939;56.522;14.950;2023-06-22T08:11:40;3.60;;;3.10;;
11763;SDS011;5939;56.522;14.950;2023-06-22T08:14:06;4.33;;;2.90;;
11763;SDS011;5939;56.522;14.950;2023-06-22T08:16:31;4.30;;;3.00;;
11763;SDS011;5939;56.522;14.950;2023-06-22T08:18:57;4.00;;;3.10;;
11763;SDS011;5939;56.522;14.950;2023-06-22T08:21:22;3.70;;;3.10;;
11763;SDS011;5939;56.522;14.950;2023-06-22T08:23:48;4.10;;;3.23;;
11763;SDS011;5939;56.522;14.950;2023-06-22T08:26:14;5.70;;;3.10;;
11763;SDS011;5939;56.522;14.950;2023-06-22T08:28:40;4.80;;;2.97;;
11763;SDS011;5939;56.522;14.950;2023-06-22T08:31:06;3.73;;;3.00;;
11763;SDS011;5939;56.522;14.950;2023-06-22T08:33:31;3.90;;;3.00;;
11763;SDS011;5939;56.522;14.950;2023-06-22T08:35:58;3.93;;;3.10;;
11763;SDS011;5939;56.522;14.950;2023-06-22T08:38:24;4.03;;;3.23;;
11763;SDS011;5939;56.522;14.950;2023-06-22T08:40:50;3.40;;;2.57;;
11763;SDS011;5939;56.522;14.950;2023-06-22T08:43:16;3.40;;;3.07;;
11763;SDS011;5939;56.522;14.950;2023-06-22T08:45:41;4.83;;;3.00;;
11763;SDS011;5939;56.522;14.950;2023-06-22T08:48:07;3.30;;;3.00;;
11763;SDS011;5939;56.522;14.950;2023-06-22T08:50:32;4.07;;;3.17;;
11763;SDS011;5939;56.522;14.950;2023-06-22T08:52:58;3.30;;;2.87;;
11763;SDS011;5939;56.522;14.950;2023-06-22T08:55:24;4.03;;;2.77;;
11763;SDS011;5939;56.522;14.950;2023-06-22T08:57:49;5.10;;;2.97;;
11763;SDS011;5939;56.522;14.950;2023-06-22T09:00:16;4.93;;;2.90;;
11763;SDS011;5939;56.522;14.950;2023-06-22T09:02:48;3.57;;;2.73;;
11763;SDS011;5939;56.522;14.950;2023-06-22T09:05:14;3.57;;;3.27;;
11763;SDS011;5939;56.522;14.950;2023-06-22T09:07:40;5.63;;;3.17;;
11763;SDS011;5939;56.522;14.950;2023-06-22T09:10:06;4.93;;;3.20;;
11763;SDS011;5939;56.522;14.950;2023-06-22T09:12:33;3.13;;;2.83;;
11763;SDS011;5939;56.522;14.950;2023-06-22T09:14:59;4.10;;;3.37;;
11763;SDS011;5939;56.522;14.950;2023-06-22T09:17:25;4.77;;;3.17;;
11763;SDS011;5939;56.522;14.950;2023-06-22T09:19:51;4.40;;;3.20;;
11763;SDS011;5939;56.522;14.950;2023-06-22T09:22:17;3.93;;;2.90;;
11763;SDS011;5939;56.522;14.950;2023-06-22T09:24:43;3.60;;;2.80;;
11763;SDS011;5939;56.522;14.950;2023-06-22T09:27:08;4.03;;;2.90;;
11763;SDS011;5939;56.522;14.950;2023-06-22T09:29:34;4.13;;;2.70;;
11763;SDS011;5939;56.522;14.950;2023-06-22T09:32:00;3.63;;;3.07;;
11763;SDS011;5939;56.522;14.950;2023-06-22T09:34:25;3.70;;;2.73;;
11763;SDS011;5939;56.522;14.950;2023-06-22T09:36:51;3.57;;;3.10;;
11763;SDS011;5939;56.522;14.950;2023-06-22T09:39:17;3.47;;;3.00;;
11763;SDS011;5939;56.522;14.950;2023-06-22T09:41:43;4.50;;;2.90;;
11763;SDS011;5939;56.522;14.950;2023-06-22T09:44:09;3.87;;;2.93;;
11763;SDS011;5939;56.522;14.950;2023-06-22T09:46:35;3.63;;;2.87;;
11763;SDS011;5939;56.522;14.950;2023-06-22T09:49:00;3.43;;;3.00;;
11763;SDS011;5939;56.522;14.950;2023-06-22T09:51:26;3.20;;;2.87;;
11763;SDS011;5939;56.522;14.950;2023-06-22T09:53:52;6.60;;;2.77;;
11763;SDS011;5939;56.522;14.950;2023-06-22T09:56:19;3.40;;;2.40;;
11763;SDS011;5939;56.522;14.950;2023-06-22T09:58:45;3.30;;;2.60;;
11763;SDS011;5939;56.522;14.950;2023-06-22T10:01:11;4.13;;;2.90;;
11763;SDS011;5939;56.522;14.950;2023-06-22T10:03:40;3.00;;;2.70;;
11763;SDS011;5939;56.522;14.950;2023-06-22T10:06:06;3.03;;;2.70;;
11763;SDS011;5939;56.522;14.950;2023-06-22T10:08:33;3.40;;;2.73;;
11763;SDS011;5939;56.522;14.950;2023-06-22T10:10:59;3.27;;;2.57;;
11763;SDS011;5939;56.522;14.950;2023-06-22T10:13:25;4.60;;;2.50;;
11763;SDS011;5939;56.522;14.950;2023-06-22T10:15:51;3.50;;;2.70;;
11763;SDS011;5939;56.522;14.950;2023-06-22T10:18:20;3.63;;;2.83;;
11763;SDS011;5939;56.522;14.950;2023-06-22T10:20:49;3.87;;;2.63;;
11763;SDS011;5939;56.522;14.950;2023-06-22T10:23:19;5.47;;;2.97;;
11763;SDS011;5939;56.522;14.950;2023-06-22T10:25:45;3.93;;;2.77;;
11763;SDS011;5939;56.522;14.950;2023-06-22T10:28:11;3.63;;;2.87;;
11763;SDS011;5939;56.522;14.950;2023-06-22T10:30:37;4.07;;;2.77;;
11763;SDS011;5939;56.522;14.950;2023-06-22T10:33:06;3.47;;;2.83;;
11763;SDS011;5939;56.522;14.950;2023-06-22T10:35:35;3.97;;;2.90;;
11763;SDS011;5939;56.522;14.950;2023-06-22T10:38:02;3.43;;;2.87;;
11763;SDS011;5939;56.522;14.950;2023-06-22T10:40:29;4.43;;;2.90;;
11763;SDS011;5939;56.522;14.950;2023-06-22T10:42:54;3.53;;;3.00;;
11763;SDS011;5939;56.522;14.950;2023-06-22T10:45:20;3.23;;;2.73;;
11763;SDS011;5939;56.522;14.950;2023-06-22T10:47:46;3.20;;;3.00;;
11763;SDS011;5939;56.522;14.950;2023-06-22T10:50:11;3.33;;;3.03;;
11763;SDS011;5939;56.522;14.950;2023-06-22T10:52:38;3.30;;;2.83;;
11763;SDS011;5939;56.522;14.950;2023-06-22T10:55:04;3.10;;;2.80;;
11763;SDS011;5939;56.522;14.950;2023-06-22T10:57:30;3.13;;;2.83;;
11763;SDS011;5939;56.522;14.950;2023-06-22T10:59:56;4.20;;;3.10;;
11763;SDS011;5939;56.522;14.950;2023-06-22T11:02:21;4.03;;;3.10;;
11763;SDS011;5939;56.522;14.950;2023-06-22T11:04:47;3.17;;;2.87;;
11763;SDS011;5939;56.522;14.950;2023-06-22T11:07:13;3.97;;;2.87;;
11763;SDS011;5939;56.522;14.950;2023-06-22T11:09:40;3.13;;;2.70;;
11763;SDS011;5939;56.522;14.950;2023-06-22T11:12:07;4.20;;;2.70;;
11763;SDS011;5939;56.522;14.950;2023-06-22T11:14:33;3.33;;;3.03;;
11763;SDS011;5939;56.522;14.950;2023-06-22T11:16:59;3.67;;;3.10;;
11763;SDS011;5939;56.522;14.950;2023-06-22T11:19:24;4.40;;;3.23;;
11763;SDS011;5939;56.522;14.950;2023-06-22T11:21:50;3.00;;;2.80;;
11763;SDS011;5939;56.522;14.950;2023-06-22T11:24:16;3.93;;;3.20;;
11763;SDS011;5939;56.522;14.950;2023-06-22T11:26:42;3.27;;;2.97;;
11763;SDS011;5939;56.522;14.950;2023-06-22T11:29:07;3.90;;;3.13;;
11763;SDS011;5939;56.522;14.950;2023-06-22T11:31:34;3.70;;;3.40;;
11763;SDS011;5939;56.522;14.950;2023-06-22T11:34:00;4.47;;;3.00;;
11763;SDS011;5939;56.522;14.950;2023-06-22T11:36:26;3.47;;;3.17;;
11763;SDS011;5939;56.522;14.950;2023-06-22T11:38:52;4.37;;;3.27;;
11763;SDS011;5939;56.522;14.950;2023-06-22T11:41:19;4.03;;;2.97;;
11763;SDS011;5939;56.522;14.950;2023-06-22T11:43:44;3.63;;;3.17;;
11763;SDS011;5939;56.522;14.950;2023-06-22T11:46:10;3.77;;;3.20;;
11763;SDS011;5939;56.522;14.950;2023-06-22T11:48:36;3.97;;;3.60;;
11763;SDS011;5939;56.522;14.950;2023-06-22T11:51:02;3.97;;;3.40;;
11763;SDS011;5939;56.522;14.950;2023-06-22T11:53:28;4.77;;;3.17;;
11763;SDS011;5939;56.522;14.950;2023-06-22T11:55:54;4.07;;;3.20;;
11763;SDS011;5939;56.522;14.950;2023-06-22T11:58:20;3.70;;;3.40;;
11763;SDS011;5939;56.522;14.950;2023-06-22T12:00:46;3.90;;;3.47;;
11763;SDS011;5939;56.522;14.950;2023-06-22T12:03:11;4.63;;;3.27;;
11763;SDS011;5939;56.522;14.950;2023-06-22T12:05:37;4.27;;;3.70;;
11763;SDS011;5939;56.522;14.950;2023-06-22T12:08:03;3.50;;;3.20;;
11763;SDS011;5939;56.522;14.950;2023-06-22T12:10:29;3.93;;;3.20;;
11763;SDS011;5939;56.522;14.950;2023-06-22T12:12:55;3.57;;;3.27;;
11763;SDS011;5939;56.522;14.950;2023-06-22T12:15:22;3.77;;;3.30;;
11763;SDS011;5939;56.522;14.950;2023-06-22T12:17:48;5.13;;;3.97;;
11763;SDS011;5939;56.522;14.950;2023-06-22T12:20:14;3.50;;;3.20;;
11763;SDS011;5939;56.522;14.950;2023-06-22T12:22:40;4.13;;;3.40;;
11763;SDS011;5939;56.522;14.950;2023-06-22T12:25:07;3.43;;;3.10;;
11763;SDS011;5939;56.522;14.950;2023-06-22T12:27:33;3.37;;;3.07;;
11763;SDS011;5939;56.522;14.950;2023-06-22T12:29:59;3.53;;;2.90;;
11763;SDS011;5939;56.522;14.950;2023-06-22T12:32:25;3.67;;;3.33;;
11763;SDS011;5939;56.522;14.950;2023-06-22T12:34:51;4.37;;;3.17;;
11763;SDS011;5939;56.522;14.950;2023-06-22T12:37:17;3.50;;;3.20;;
11763;SDS011;5939;56.522;14.950;2023-06-22T12:39:43;3.27;;;2.90;;
11763;SDS011;5939;56.522;14.950;2023-06-22T12:42:08;3.20;;;3.00;;
11763;SDS011;5939;56.522;14.950;2023-06-22T12:44:37;3.87;;;3.17;;
11763;SDS011;5939;56.522;14.950;2023-06-22T12:47:03;3.97;;;2.90;;
11763;SDS011;5939;56.522;14.950;2023-06-22T12:49:29;4.10;;;3.17;;
11763;SDS011;5939;56.522;14.950;2023-06-22T12:51:55;3.30;;;3.00;;
11763;SDS011;5939;56.522;14.950;2023-06-22T12:54:20;3.50;;;2.90;;
11763;SDS011;5939;56.522;14.950;2023-06-22T12:56:46;3.13;;;2.83;;
11763;SDS011;5939;56.522;14.950;2023-06-22T12:59:12;3.40;;;2.87;;
11763;SDS011;5939;56.522;14.950;2023-06-22T13:01:38;4.40;;;2.80;;
11763;SDS011;5939;56.522;14.950;2023-06-22T13:04:03;4.03;;;2.97;;
11763;SDS011;5939;56.522;14.950;2023-06-22T13:06:30;3.73;;;2.97;;
11763;SDS011;5939;56.522;14.950;2023-06-22T13:08:55;3.57;;;2.87;;
11763;SDS011;5939;56.522;14.950;2023-06-22T13:11:21;3.13;;;2.87;;
11763;SDS011;5939;56.522;14.950;2023-06-22T13:13:47;3.13;;;2.80;;
11763;SDS011;5939;56.522;14.950;2023-06-22T13:16:12;3.57;;;3.17;;
11763;SDS011;5939;56.522;14.950;2023-06-22T13:18:38;3.13;;;2.83;;
11763;SDS011;5939;56.522;14.950;2023-06-22T13:21:04;3.70;;;3.30;;
11763;SDS011;5939;56.522;14.950;2023-06-22T13:23:30;3.50;;;3.20;;
11763;SDS011;5939;56.522;14.950;2023-06-22T13:25:56;3.37;;;3.07;;
11763;SDS011;5939;56.522;14.950;2023-06-22T13:28:22;3.50;;;2.97;;
11763;SDS011;5939;56.522;14.950;2023-06-22T13:30:48;3.73;;;3.43;;
11763;SDS011;5939;56.522;14.950;2023-06-22T13:33:13;3.80;;;3.20;;
11763;SDS011;5939;56.522;14.950;2023-06-22T13:35:39;3.67;;;3.03;;
11763;SDS011;5939;56.522;14.950;2023-06-22T13:38:07;3.40;;;3.10;;
11763;SDS011;5939;56.522;14.950;2023-06-22T13:40:34;3.87;;;3.33;;
11763;SDS011;5939;56.522;14.950;2023-06-22T13:42:59;3.90;;;3.13;;
11763;SDS011;5939;56.522;14.950;2023-06-22T13:45:25;3.63;;;3.33;;
11763;SDS011;5939;56.522;14.950;2023-06-22T13:47:51;3.37;;;3.07;;
11763;SDS011;5939;56.522;14.950;2023-06-22T13:50:17;3.90;;;3.03;;
11763;SDS011;5939;56.522;14.950;2023-06-22T13:52:43;3.40;;;3.10;;
11763;SDS011;5939;56.522;14.950;2023-06-22T13:55:09;3.77;;;3.37;;
11763;SDS011;5939;56.522;14.950;2023-06-22T13:57:35;3.83;;;3.23;;
11763;SDS011;5939;56.522;14.950;2023-06-22T14:00:01;3.47;;;2.67;;
11763;SDS011;5939;56.522;14.950;2023-06-22T14:02:27;3.30;;;3.00;;
11763;SDS011;5939;56.522;14.950;2023-06-22T14:04:53;3.00;;;2.80;;
11763;SDS011;5939;56.522;14.950;2023-06-22T14:07:18;4.17;;;3.30;;
11763;SDS011;5939;56.522;14.950;2023-06-22T14:09:45;4.00;;;3.00;;
11763;SDS011;5939;56.522;14.950;2023-06-22T14:12:11;3.73;;;3.27;;
11763;SDS011;5939;56.522;14.950;2023-06-22T14:14:37;3.93;;;3.07;;
11763;SDS011;5939;56.522;14.950;2023-06-22T14:17:03;3.50;;;3.17;;
11763;SDS011;5939;56.522;14.950;2023-06-22T14:19:30;3.37;;;3.07;;
11763;SDS011;5939;56.522;14.950;2023-06-22T14:21:55;3.30;;;3.00;;
11763;SDS011;5939;56.522;14.950;2023-06-22T14:24:24;3.77;;;2.93;;
11763;SDS011;5939;56.522;14.950;2023-06-22T14:26:50;4.37;;;2.83;;
11763;SDS011;5939;56.522;14.950;2023-06-22T14:29:15;13.97;;;3.97;;
11763;SDS011;5939;56.522;14.950;2023-06-22T14:31:44;7.93;;;3.50;;
11763;SDS011;5939;56.522;14.950;2023-06-22T14:34:11;4.23;;;3.27;;
11763;SDS011;5939;56.522;14.950;2023-06-22T14:36:36;4.07;;;3.20;;
11763;SDS011;5939;56.522;14.950;2023-06-22T14:39:02;3.47;;;3.17;;
11763;SDS011;5939;56.522;14.950;2023-06-22T14:41:28;3.80;;;3.10;;
11763;SDS011;5939;56.522;14.950;2023-06-22T14:43:55;4.37;;;3.20;;
11763;SDS011;5939;56.522;14.950;2023-06-22T14:46:20;3.63;;;3.10;;
11763;SDS011;5939;56.522;14.950;2023-06-22T14:48:46;4.13;;;3.13;;